Terminal Aerodrome Forecast
Issued by NWS North Platte, NE

Home | Current Version | Previous Version | Text Only | Print | Product List | Glossary On
Versions: 1 2 3 4 5 6 7 8 9 10 11 12 13 14 15 16 17 18 19 20
251
FTUS43 KLBF 261720
TAFVTN
TAF
KVTN 261720Z 2618/2718 05014G20KT P6SM FEW015 SCT090 BKN250
     FM270100 06009KT P6SM SCT250
     FM270300 VRB04KT P6SM FEW250=

USA.gov is the U.S. government's official web portal to all federal, state and local government web resources and services.